PHOENIX SKY HARBOR INTL

KPHX (PHX)
Phoenix, Arizona
Towered

Vatsim Metar:
KPHX 131151Z 11003KT 10SM FEW140 BKN230 33/15 A2979 RMK AO2 SLP062 T03330150 10383 20333 55000